| time (UTC) | temp F | wind direction | speed MPH | gust MPH | rain 1hr in | rain 24hr in | rain mn in | humidity % | barometer mb |
| 20260503175045 | 76 | 191 | 0.0 | 2.0 | 0.00 | 0.00 | 0.00 | 53 | 1012.5 |
| 20260503174625 | 76 | 116 | 1.0 | 2.0 | 0.00 | 0.00 | 0.00 | 54 | 1012.9 |
| 20260503174603 | 76 | 67 | 2.0 | 3.0 | 0.00 | 0.00 | 0.00 | 53 | 1012.9 |
| 20260503174142 | 76 | 111 | 3.0 | 4.0 | 0.00 | 0.00 | 0.00 | 55 | 1012.5 |
| 20260503173938 | 75 | 172 | 3.0 | 4.0 | 0.00 | 0.00 | 0.00 | 54 | 1012.9 |
| 20260503173732 | 75 | 147 | 4.0 | 5.0 | 0.00 | 0.00 | 0.00 | 53 | 1012.5 |
| 20260503173529 | 76 | 117 | 2.0 | 2.0 | 0.00 | 0.00 | 0.00 | 55 | 1012.5 |
| 20260503173507 | 75 | 115 | 2.0 | 2.0 | 0.00 | 0.00 | 0.00 | 54 | 1012.5 |
| 20260503173046 | 75 | 146 | 0.0 | 1.0 | 0.00 | 0.00 | 0.00 | 55 | 1012.5 |
| 20260503173025 | 75 | 135 | 3.0 | 5.0 | 0.00 | 0.00 | 0.00 | 55 | 1012.5 |
| 20260503172748 | 75 | 131 | 3.0 | 4.0 | 0.00 | 0.00 | 0.00 | 55 | 1012.5 |
| 20260503172331 | 75 | 90 | 4.0 | 4.0 | 0.00 | 0.00 | 0.00 | 56 | 1012.5 |
| 20260503172123 | 74 | 159 | 3.0 | 3.0 | 0.00 | 0.00 | 0.00 | 56 | 1012.5 |
| 20260503171918 | 75 | 121 | 3.0 | 3.0 | 0.00 | 0.00 | 0.00 | 55 | 1012.9 |
| 20260503171713 | 75 | 106 | 1.0 | 2.0 | 0.00 | 0.00 | 0.00 | 56 | 1012.9 |
| 20260503171509 | 75 | 96 | 1.0 | 2.0 | 0.00 | 0.00 | 0.00 | 57 | 1012.9 |
| 20260503171305 | 74 | 173 | 1.0 | 2.0 | 0.00 | 0.00 | 0.00 | 58 | 1012.9 |
| 20260503171101 | 74 | 118 | 2.0 | 2.0 | 0.00 | 0.00 | 0.00 | 58 | 1012.5 |
| 20260503170857 | 73 | 154 | 2.0 | 3.0 | 0.00 | 0.00 | 0.00 | 58 | 1012.9 |
| 20260503170653 | 74 | 139 | 4.0 | 5.0 | 0.00 | 0.00 | 0.00 | 58 | 1012.9 |
| 20260503170631 | 73 | 106 | 3.0 | 4.0 | 0.00 | 0.00 | 0.00 | 58 | 1012.9 |
| 20260503170213 | 73 | 198 | 2.0 | 2.0 | 0.00 | 0.00 | 0.00 | 58 | 1012.9 |
| 20260503160207 | 65 | 133 | 1.0 | 2.0 | 0.00 | 0.00 | 0.00 | 71 | 1012.9 |
| 20260503151005 | 62 | 132 | 1.0 | 2.0 | 0.00 | 0.00 | 0.00 | 74 | 1012.9 |
| 20260503150802 | 62 | 141 | 0.0 | 2.0 | 0.00 | 0.00 | 0.00 | 73 | 1013.2 |
| 20260503150555 | 62 | 112 | 0.0 | 1.0 | 0.00 | 0.00 | 0.00 | 73 | 1013.2 |
| 20260503150352 | 62 | 123 | 0.0 | 0.0 | 0.00 | 0.00 | 0.00 | 72 | 1013.2 |
| 20260503150143 | 62 | 114 | 0.0 | 0.0 | 0.00 | 0.00 | 0.00 | 72 | 1013.2 |
| 20260503140230 | 53 | 162 | 0.0 | 1.0 | 0.00 | 0.00 | 0.00 | 85 | 1012.9 |
| 20260503131245 | 51 | 184 | 0.0 | 0.0 | 0.00 | 0.00 | 0.00 | 87 | 1012.9 |
| 20260503131042 | 51 | 177 | 0.0 | 0.0 | 0.00 | 0.00 | 0.00 | 87 | 1012.9 |
| 20260503130838 | 51 | 146 | 0.0 | 0.0 | 0.00 | 0.00 | 0.00 | 87 | 1012.5 |
| 20260503130816 | 51 | 143 | 0.0 | 0.0 | 0.00 | 0.00 | 0.00 | 87 | 1012.9 |
| 20260503130540 | 51 | 214 | 0.0 | 0.0 | 0.00 | 0.00 | 0.00 | 87 | 1012.9 |
| 20260503130122 | 51 | 155 | 0.0 | 0.0 | 0.00 | 0.00 | 0.00 | 87 | 1012.5 |
| 20260503110754 | 52 | 231 | 0.0 | 0.0 | 0.00 | 0.00 | 0.00 | 87 | 1012.9 |
| 20260503110551 | 52 | 195 | 0.0 | 0.0 | 0.00 | 0.00 | 0.00 | 86 | 1012.9 |
| 20260503110347 | 52 | 154 | 0.0 | 0.0 | 0.00 | 0.00 | 0.00 | 87 | 1013.2 |
| 20260503110143 | 52 | 154 | 0.0 | 1.0 | 0.00 | 0.00 | 0.00 | 87 | 1012.9 |
| 20260503100249 | 53 | 178 | 0.0 | 1.0 | 0.00 | 0.00 | 0.00 | 86 | 1013.2 |
| 20260503090308 | 54 | 200 | 0.0 | 0.0 | 0.00 | 0.00 | 0.00 | 85 | 1013.5 |
| 20260503081521 | 55 | 200 | 0.0 | 0.0 | 0.00 | 0.00 | 0.00 | 84 | 1013.9 |
| 20260503081315 | 55 | 189 | 0.0 | 1.0 | 0.00 | 0.00 | 0.00 | 84 | 1014.2 |
| 20260503081111 | 55 | 164 | 0.0 | 0.0 | 0.00 | 0.00 | 0.00 | 84 | 1013.9 |
| 20260503081050 | 55 | 205 | 0.0 | 0.0 | 0.00 | 0.00 | 0.00 | 84 | 1013.9 |
| 20260503080632 | 55 | 206 | 0.0 | 0.0 | 0.00 | 0.00 | 0.00 | 84 | 1013.9 |
| 20260503080426 | 55 | 221 | 0.0 | 0.0 | 0.00 | 0.00 | 0.00 | 84 | 1013.9 |
| 20260503080220 | 55 | 221 | 0.0 | 0.0 | 0.00 | 0.00 | 0.00 | 83 | 1013.9 |
| 20260503072812 | 57 | 194 | 0.0 | 0.0 | 0.00 | 0.00 | 0.00 | 82 | 1013.9 |
| 20260503072608 | 57 | 214 | 0.0 | 0.0 | 0.00 | 0.00 | 0.00 | 81 | 1013.9 |
| 20260503072546 | 57 | 217 | 1.0 | 2.0 | 0.00 | 0.00 | 0.00 | 82 | 1013.9 |
| 20260503072128 | 57 | 235 | 0.0 | 0.0 | 0.00 | 0.00 | 0.00 | 82 | 1013.9 |
| 20260503071924 | 57 | 206 | 0.0 | 0.0 | 0.00 | 0.00 | 0.00 | 81 | 1014.2 |
| 20260503071720 | 57 | 219 | 0.0 | 1.0 | 0.00 | 0.00 | 0.00 | 81 | 1014.2 |
| 20260503071517 | 57 | 224 | 0.0 | 1.0 | 0.00 | 0.00 | 0.00 | 81 | 1014.2 |
| 20260503071455 | 57 | 194 | 0.0 | 1.0 | 0.00 | 0.00 | 0.00 | 81 | 1013.9 |
| 20260503071036 | 57 | 106 | 0.0 | 1.0 | 0.00 | 0.00 | 0.00 | 81 | 1013.9 |
| 20260503070829 | 57 | 111 | 0.0 | 1.0 | 0.00 | 0.00 | 0.00 | 81 | 1013.9 |
| 20260503070623 | 57 | 116 | 1.0 | 2.0 | 0.00 | 0.00 | 0.00 | 81 | 1013.5 |
| 20260503070418 | 57 | 109 | 1.0 | 2.0 | 0.00 | 0.00 | 0.00 | 80 | 1013.5 |
| 20260503070213 | 58 | 125 | 1.0 | 2.0 | 0.00 | 0.00 | 0.00 | 80 | 1013.9 |
| 20260503060256 | 58 | 211 | 1.0 | 2.0 | 0.00 | 0.17 | 0.00 | 79 | 1013.9 |
| 20260503055022 | 59 | 126 | 0.0 | 1.0 | 0.00 | 0.17 | 0.00 | 78 | 1013.5 |
| 20260503054812 | 59 | 117 | 1.0 | 2.0 | 0.00 | 0.17 | 0.00 | 78 | 1013.9 |
| 20260503054606 | 59 | 226 | 0.0 | 0.0 | 0.00 | 0.17 | 0.00 | 78 | 1013.9 |
| 20260503054400 | 59 | 222 | 0.0 | 1.0 | 0.00 | 0.17 | 0.00 | 78 | 1013.9 |
| 20260503054338 | 59 | 217 | 0.0 | 0.0 | 0.00 | 0.17 | 0.00 | 77 | 1013.9 |
| 20260503053917 | 60 | 222 | 0.0 | 0.0 | 0.00 | 0.17 | 0.00 | 77 | 1013.9 |
| 20260503053855 | 60 | 233 | 1.0 | 2.0 | 0.00 | 0.17 | 0.00 | 77 | 1013.9 |
| 20260503053620 | 60 | 221 | 0.0 | 0.0 | 0.00 | 0.17 | 0.00 | 77 | 1014.2 |
| 20260503053200 | 60 | 190 | 0.0 | 0.0 | 0.00 | 0.17 | 0.00 | 76 | 1013.9 |
| 20260503053138 | 60 | 185 | 0.0 | 0.0 | 0.00 | 0.17 | 0.00 | 76 | 1013.9 |
| 20260503052901 | 60 | 209 | 0.0 | 0.0 | 0.00 | 0.17 | 0.00 | 76 | 1013.9 |
| 20260503052441 | 60 | 223 | 0.0 | 0.0 | 0.00 | 0.17 | 0.00 | 76 | 1013.9 |
| 20260503052236 | 60 | 221 | 0.0 | 1.0 | 0.00 | 0.17 | 0.00 | 76 | 1013.9 |
| 20260503052031 | 60 | 229 | 1.0 | 2.0 | 0.00 | 0.17 | 0.00 | 76 | 1013.9 |
| 20260503052010 | 61 | 227 | 1.0 | 2.0 | 0.00 | 0.17 | 0.00 | 76 | 1014.2 |
| 20260503051547 | 61 | 210 | 1.0 | 2.0 | 0.00 | 0.17 | 0.00 | 75 | 1014.2 |
| 20260503051341 | 61 | 202 | 0.0 | 0.0 | 0.00 | 0.17 | 0.00 | 75 | 1014.2 |
| 20260503051137 | 61 | 222 | 0.0 | 1.0 | 0.00 | 0.17 | 0.00 | 75 | 1014.2 |
| 20260503050933 | 61 | 203 | 2.0 | 2.0 | 0.00 | 0.17 | 0.00 | 75 | 1014.2 |
| 20260503050729 | 61 | 152 | 0.0 | 0.0 | 0.00 | 0.17 | 0.00 | 75 | 1014.2 |
| 20260503050707 | 61 | 143 | 0.0 | 1.0 | 0.00 | 0.17 | 0.00 | 75 | 1013.9 |
| 20260503050250 | 61 | 168 | 0.0 | 1.0 | 0.00 | 0.17 | 0.00 | 75 | 1013.9 |
| 20260503050045 | 61 | 194 | 0.0 | 0.0 | 0.00 | 0.17 | 0.00 | 74 | 1013.5 |
| 20260503045841 | 61 | 140 | 0.0 | 1.0 | 0.00 | 0.17 | 0.00 | 75 | 1013.5 |
| 20260503045637 | 61 | 135 | 0.0 | 1.0 | 0.00 | 0.17 | 0.00 | 74 | 1013.9 |
| 20260503045433 | 61 | 140 | 3.0 | 3.0 | 0.00 | 0.17 | 0.00 | 74 | 1013.5 |
| 20260503045229 | 61 | 132 | 2.0 | 2.0 | 0.00 | 0.17 | 0.00 | 74 | 1013.9 |
| 20260503045025 | 62 | 124 | 2.0 | 3.0 | 0.00 | 0.17 | 0.00 | 74 | 1013.5 |
| 20260503044819 | 62 | 110 | 2.0 | 2.0 | 0.00 | 0.17 | 0.00 | 73 | 1013.5 |
| 20260503044615 | 62 | 144 | 0.0 | 0.0 | 0.00 | 0.17 | 0.00 | 73 | 1013.5 |
| 20260503044553 | 62 | 135 | 0.0 | 1.0 | 0.00 | 0.17 | 0.00 | 73 | 1013.5 |
| 20260503044133 | 62 | 230 | 1.0 | 2.0 | 0.00 | 0.17 | 0.00 | 72 | 1013.5 |
| 20260503043928 | 62 | 163 | 4.0 | 5.0 | 0.00 | 0.17 | 0.00 | 72 | 1013.5 |
| 20260503040053 | 63 | 233 | 2.0 | 2.0 | 0.00 | 0.17 | 0.00 | 71 | 1013.5 |
| 20260503040029 | 63 | 243 | 2.0 | 2.0 | 0.00 | 0.17 | 0.00 | 70 | 1013.5 |
| 20260503035610 | 63 | 226 | 1.0 | 2.0 | 0.00 | 0.17 | 0.00 | 70 | 1013.2 |
| 20260503035406 | 63 | 136 | 2.0 | 3.0 | 0.00 | 0.17 | 0.00 | 70 | 1013.5 |
| 20260503035200 | 63 | 214 | 0.0 | 0.0 | 0.00 | 0.17 | 0.00 | 70 | 1013.5 |
| 20260503034956 | 63 | 230 | 1.0 | 1.0 | 0.00 | 0.17 | 0.00 | 70 | 1013.2 |
| 20260503034752 | 63 | 205 | 0.0 | 0.0 | 0.00 | 0.17 | 0.00 | 69 | 1013.2 |
| 20260503034546 | 64 | 109 | 0.0 | 1.0 | 0.00 | 0.17 | 0.00 | 69 | 1013.2 |
| 20260503034524 | 64 | 229 | 0.0 | 1.0 | 0.00 | 0.17 | 0.00 | 69 | 1013.2 |
| 20260503034106 | 64 | 100 | 1.0 | 2.0 | 0.00 | 0.17 | 0.00 | 68 | 1013.2 |
| 20260503033858 | 64 | 150 | 0.0 | 1.0 | 0.00 | 0.17 | 0.00 | 68 | 1013.2 |
| 20260503033654 | 64 | 135 | 0.0 | 1.0 | 0.00 | 0.17 | 0.00 | 68 | 1013.2 |
| 20260503033450 | 64 | 121 | 1.0 | 2.0 | 0.00 | 0.17 | 0.00 | 68 | 1013.2 |
| 20260503033246 | 64 | 146 | 2.0 | 2.0 | 0.00 | 0.17 | 0.00 | 67 | 1012.9 |
| 20260503033042 | 64 | 163 | 2.0 | 2.0 | 0.00 | 0.17 | 0.00 | 68 | 1012.9 |
| 20260503032833 | 64 | 197 | 0.0 | 1.0 | 0.00 | 0.17 | 0.00 | 67 | 1012.9 |
| 20260503032629 | 65 | 212 | 0.0 | 1.0 | 0.00 | 0.17 | 0.00 | 67 | 1012.9 |
| 20260503032425 | 65 | 240 | 2.0 | 3.0 | 0.00 | 0.17 | 0.00 | 67 | 1012.9 |
| 20260503032220 | 65 | 76 | 1.0 | 2.0 | 0.00 | 0.17 | 0.00 | 67 | 1012.9 |
| 20260503032016 | 65 | 170 | 2.0 | 2.0 | 0.00 | 0.17 | 0.00 | 66 | 1012.9 |
| 20260503031807 | 65 | 129 | 1.0 | 2.0 | 0.00 | 0.17 | 0.00 | 66 | 1013.2 |
| 20260503031745 | 65 | 140 | 1.0 | 2.0 | 0.00 | 0.17 | 0.00 | 66 | 1012.9 |
| 20260503031324 | 65 | 80 | 2.0 | 2.0 | 0.00 | 0.17 | 0.00 | 66 | 1013.2 |
| 20260503031117 | 65 | 98 | 1.0 | 2.0 | 0.00 | 0.17 | 0.00 | 66 | 1012.9 |
| 20260503030912 | 65 | 58 | 3.0 | 3.0 | 0.00 | 0.17 | 0.00 | 66 | 1012.9 |
| 20260503030708 | 65 | 38 | 2.0 | 2.0 | 0.00 | 0.17 | 0.00 | 66 | 1012.9 |
| 20260503030645 | 65 | 236 | 0.0 | 0.0 | 0.00 | 0.17 | 0.00 | 66 | 1012.9 |
| 20260503030229 | 65 | 280 | 0.0 | 2.0 | 0.00 | 0.17 | 0.00 | 65 | 1012.9 |
| 20260503030022 | 65 | 140 | 2.0 | 3.0 | 0.00 | 0.17 | 0.00 | 65 | 1012.9 |
| 20260503025818 | 65 | 336 | 1.0 | 2.0 | 0.00 | 0.17 | 0.00 | 65 | 1012.9 |
| 20260503025611 | 65 | 270 | 0.0 | 1.0 | 0.00 | 0.17 | 0.00 | 66 | 1012.9 |
| 20260503025405 | 65 | 132 | 1.0 | 2.0 | 0.00 | 0.17 | 0.00 | 66 | 1013.2 |
| 20260503025201 | 65 | 230 | 1.0 | 2.0 | 0.00 | 0.17 | 0.00 | 66 | 1013.2 |
| 20260503024955 | 65 | 220 | 0.0 | 0.0 | 0.00 | 0.17 | 0.00 | 66 | 1013.2 |
| 20260503024747 | 65 | 250 | 3.0 | 4.0 | 0.00 | 0.17 | 0.00 | 66 | 1012.9 |
| 20260503024542 | 65 | 239 | 1.0 | 2.0 | 0.00 | 0.17 | 0.00 | 66 | 1013.2 |
| 20260503024338 | 65 | 234 | 2.0 | 2.0 | 0.00 | 0.17 | 0.00 | 66 | 1013.5 |
| 20260503024134 | 65 | 229 | 0.0 | 2.0 | 0.00 | 0.17 | 0.00 | 66 | 1013.2 |
| 20260503023930 | 65 | 215 | 0.0 | 0.0 | 0.00 | 0.17 | 0.00 | 66 | 1013.2 |
| 20260503023726 | 65 | 133 | 0.0 | 0.0 | 0.00 | 0.17 | 0.00 | 66 | 1013.5 |
| 20260503023704 | 65 | 229 | 1.0 | 2.0 | 0.00 | 0.17 | 0.00 | 66 | 1013.5 |
| 20260503023243 | 65 | 211 | 0.0 | 1.0 | 0.00 | 0.17 | 0.00 | 66 | 1013.5 |
| 20260503023221 | 65 | 256 | 4.0 | 4.0 | 0.00 | 0.17 | 0.00 | 66 | 1013.5 |
| 20260503022802 | 65 | 242 | 3.0 | 4.0 | 0.00 | 0.17 | 0.00 | 66 | 1013.9 |
| 20260503022558 | 65 | 251 | 1.0 | 2.0 | 0.00 | 0.17 | 0.00 | 65 | 1014.2 |
| 20260503022536 | 66 | 129 | 1.0 | 2.0 | 0.00 | 0.17 | 0.00 | 65 | 1014.2 |
| 20260503022114 | 66 | 204 | 0.0 | 2.0 | 0.00 | 0.17 | 0.00 | 65 | 1014.2 |
| 20260503021907 | 65 | 202 | 1.0 | 2.0 | 0.00 | 0.17 | 0.00 | 65 | 1014.2 |
| 20260503021703 | 65 | 114 | 2.0 | 3.0 | 0.00 | 0.17 | 0.00 | 65 | 1014.2 |
| 20260503021455 | 66 | 161 | 5.0 | 6.0 | 0.00 | 0.17 | 0.00 | 64 | 1014.2 |
| 20260503021251 | 66 | 176 | 1.0 | 2.0 | 0.00 | 0.17 | 0.00 | 64 | 1014.2 |
| 20260503021046 | 66 | 83 | 1.0 | 3.0 | 0.00 | 0.17 | 0.00 | 64 | 1014.6 |
| 20260503020841 | 66 | 151 | 3.0 | 3.0 | 0.00 | 0.17 | 0.00 | 64 | 1014.6 |
| 20260503020634 | 66 | 183 | 3.0 | 5.0 | 0.00 | 0.17 | 0.00 | 64 | 1014.6 |
| 20260503020428 | 66 | 123 | 3.0 | 3.0 | 0.00 | 0.17 | 0.00 | 64 | 1014.6 |
| 20260503020222 | 66 | 121 | 4.0 | 5.0 | 0.00 | 0.17 | 0.00 | 64 | 1014.6 |
| 20260503020018 | 66 | 103 | 6.0 | 8.0 | 0.00 | 0.17 | 0.00 | 64 | 1014.6 |
| 20260503015813 | 66 | 148 | 3.0 | 5.0 | 0.00 | 0.17 | 0.00 | 64 | 1014.6 |
| 20260503015606 | 66 | 131 | 4.0 | 5.0 | 0.00 | 0.17 | 0.00 | 65 | 1014.6 |
| 20260503015401 | 66 | 140 | 1.0 | 2.0 | 0.00 | 0.17 | 0.00 | 64 | 1014.6 |
| 20260503015155 | 66 | 114 | 5.0 | 5.0 | 0.00 | 0.17 | 0.00 | 65 | 1014.6 |
| 20260503014950 | 66 | 120 | 5.0 | 7.0 | 0.00 | 0.17 | 0.00 | 65 | 1014.2 |
| 20260503014742 | 66 | 120 | 6.0 | 7.0 | 0.00 | 0.17 | 0.00 | 64 | 1014.6 |
| 20260503014537 | 66 | 118 | 4.0 | 6.0 | 0.00 | 0.17 | 0.00 | 63 | 1014.2 |
| 20260503014331 | 66 | 126 | 3.0 | 5.0 | 0.00 | 0.17 | 0.00 | 64 | 1013.9 |
| 20260503014125 | 66 | 112 | 5.0 | 6.0 | 0.00 | 0.17 | 0.00 | 63 | 1013.9 |
| 20260503014101 | 67 | 161 | 0.0 | 2.0 | 0.00 | 0.17 | 0.00 | 63 | 1013.5 |
| 20260503013642 | 67 | 146 | 3.0 | 5.0 | 0.00 | 0.17 | 0.00 | 62 | 1013.5 |
| 20260503013434 | 67 | 179 | 2.0 | 2.0 | 0.00 | 0.17 | 0.00 | 62 | 1013.5 |
| 20260503013230 | 67 | 102 | 2.0 | 2.0 | 0.00 | 0.17 | 0.00 | 62 | 1013.5 |
| 20260503013024 | 67 | 171 | 3.0 | 5.0 | 0.00 | 0.17 | 0.00 | 62 | 1013.5 |
| 20260503012819 | 67 | 102 | 3.0 | 3.0 | 0.00 | 0.17 | 0.00 | 62 | 1013.5 |
| 20260503012614 | 67 | 137 | 3.0 | 4.0 | 0.00 | 0.17 | 0.00 | 62 | 1013.5 |
| 20260503012552 | 67 | 146 | 3.0 | 5.0 | 0.00 | 0.17 | 0.00 | 62 | 1013.9 |
| 20260503012134 | 67 | 141 | 3.0 | 5.0 | 0.00 | 0.17 | 0.00 | 62 | 1013.5 |
| 20260503011930 | 67 | 170 | 4.0 | 5.0 | 0.00 | 0.17 | 0.00 | 61 | 1013.5 |
| 20260503011725 | 67 | 126 | 3.0 | 5.0 | 0.00 | 0.17 | 0.00 | 62 | 1013.9 |
| 20260503011519 | 67 | 71 | 3.0 | 5.0 | 0.00 | 0.17 | 0.00 | 61 | 1013.5 |
| 20260503011315 | 68 | 172 | 3.0 | 3.0 | 0.00 | 0.17 | 0.00 | 61 | 1013.5 |
| 20260503011111 | 68 | 105 | 1.0 | 2.0 | 0.00 | 0.17 | 0.00 | 62 | 1013.5 |
| 20260503010904 | 67 | 136 | 1.0 | 2.0 | 0.00 | 0.17 | 0.00 | 62 | 1013.5 |
| 20260503010658 | 68 | 189 | 4.0 | 5.0 | 0.00 | 0.17 | 0.00 | 61 | 1013.5 |
| 20260503010454 | 67 | 197 | 5.0 | 7.0 | 0.00 | 0.17 | 0.00 | 61 | 1013.5 |
| 20260503010249 | 68 | 172 | 4.0 | 5.0 | 0.00 | 0.17 | 0.00 | 61 | 1013.5 |
| 20260503010227 | 67 | 139 | 1.0 | 2.0 | 0.00 | 0.17 | 0.00 | 61 | 1013.5 |
| 20260503005809 | 68 | 152 | 2.0 | 3.0 | 0.17 | 0.17 | 0.00 | 61 | 1013.5 |
| 20260503005605 | 67 | 136 | 1.0 | 2.0 | 0.17 | 0.17 | 0.00 | 61 | 1013.5 |
| 20260503005401 | 68 | 122 | 4.0 | 5.0 | 0.17 | 0.17 | 0.00 | 61 | 1013.5 |
| 20260503005339 | 68 | 135 | 4.0 | 6.0 | 0.17 | 0.17 | 0.00 | 61 | 1013.2 |
| 20260503004920 | 68 | 101 | 4.0 | 5.0 | 0.17 | 0.17 | 0.00 | 62 | 1013.5 |
| 20260503004716 | 68 | 140 | 2.0 | 5.0 | 0.17 | 0.17 | 0.00 | 62 | 1013.2 |
| 20260503004512 | 67 | 144 | 3.0 | 4.0 | 0.17 | 0.17 | 0.00 | 63 | 1013.2 |
| 20260503004307 | 67 | 132 | 1.0 | 3.0 | 0.17 | 0.17 | 0.00 | 63 | 1013.5 |
| 20260502235152 | 67 | 101 | 2.0 | 2.0 | 0.00 | 0.17 | 0.00 | 62 | 1016.3 |
| 20260502234947 | 67 | 145 | 0.0 | 2.0 | 0.00 | 0.17 | 0.00 | 63 | 1016.3 |
| 20260502234739 | 67 | 136 | 3.0 | 4.0 | 0.00 | 0.17 | 0.00 | 62 | 1016.3 |
| 20260502234530 | 67 | 139 | 4.0 | 5.0 | 0.00 | 0.17 | 0.00 | 62 | 1016.3 |
| 20260502234315 | 67 | 146 | 3.0 | 5.0 | 0.00 | 0.17 | 0.00 | 62 | 1016.3 |
| 20260502234058 | 67 | 176 | 1.0 | 2.0 | 0.00 | 0.17 | 0.00 | 62 | 1016.6 |
| 20260502233845 | 67 | 135 | 4.0 | 5.0 | 0.00 | 0.17 | 0.00 | 62 | 1016.3 |
| 20260502233634 | 67 | 137 | 2.0 | 4.0 | 0.00 | 0.17 | 0.00 | 62 | 1016.3 |
| 20260502233420 | 67 | 157 | 2.0 | 3.0 | 0.00 | 0.17 | 0.00 | 61 | 1016.3 |
| 20260502233214 | 67 | 99 | 2.0 | 3.0 | 0.00 | 0.17 | 0.00 | 62 | 1016.3 |
| 20260502233008 | 67 | 144 | 2.0 | 2.0 | 0.00 | 0.17 | 0.00 | 62 | 1016.6 |
| 20260502232802 | 67 | 80 | 2.0 | 3.0 | 0.00 | 0.17 | 0.00 | 62 | 1016.6 |
| 20260502232558 | 67 | 98 | 0.0 | 1.0 | 0.00 | 0.17 | 0.00 | 62 | 1016.6 |
| 20260502232352 | 67 | 163 | 4.0 | 5.0 | 0.00 | 0.17 | 0.00 | 61 | 1016.6 |
| 20260502232135 | 67 | 135 | 5.0 | 6.0 | 0.00 | 0.17 | 0.00 | 60 | 1016.6 |
| 20260502231925 | 67 | 152 | 4.0 | 5.0 | 0.00 | 0.17 | 0.00 | 61 | 1016.6 |
| 20260502231710 | 67 | 136 | 5.0 | 6.0 | 0.00 | 0.17 | 0.00 | 60 | 1016.6 |
| 20260502231504 | 67 | 138 | 3.0 | 7.0 | 0.00 | 0.17 | 0.00 | 60 | 1016.9 |
| 20260502231250 | 67 | 136 | 4.0 | 5.0 | 0.00 | 0.17 | 0.00 | 62 | 1016.6 |
| 20260502231041 | 67 | 136 | 4.0 | 5.0 | 0.00 | 0.17 | 0.00 | 62 | 1016.6 |
| 20260502230835 | 67 | 136 | 4.0 | 5.0 | 0.00 | 0.17 | 0.00 | 62 | 1016.6 |
| 20260502230625 | 67 | 136 | 4.0 | 5.0 | 0.00 | 0.17 | 0.00 | 62 | 1016.9 |
| 20260502230407 | 67 | 138 | 7.0 | 8.0 | 0.00 | 0.17 | 0.00 | 61 | 1016.9 |
| 20260502230150 | 68 | 131 | 5.0 | 6.0 | 0.00 | 0.17 | 0.00 | 60 | 1017.3 |
| 20260502225942 | 67 | 146 | 4.0 | 7.0 | 0.00 | 0.17 | 0.00 | 60 | 1016.9 |
| 20260502225731 | 67 | 109 | 4.0 | 6.0 | 0.00 | 0.17 | 0.00 | 60 | 1016.9 |
| 20260502225517 | 68 | 128 | 5.0 | 5.0 | 0.00 | 0.17 | 0.00 | 59 | 1016.9 |
| 20260502225309 | 68 | 146 | 0.0 | 1.0 | 0.00 | 0.17 | 0.00 | 59 | 1016.9 |
| 20260502225103 | 68 | 142 | 2.0 | 2.0 | 0.00 | 0.17 | 0.00 | 59 | 1016.9 |
| 20260502225041 | 68 | 132 | 2.0 | 3.0 | 0.00 | 0.17 | 0.00 | 58 | 1016.9 |
| 20260502224615 | 68 | 129 | 2.0 | 4.0 | 0.00 | 0.17 | 0.00 | 57 | 1016.9 |
| 20260502224409 | 68 | 248 | 0.0 | 1.0 | 0.00 | 0.17 | 0.00 | 56 | 1016.9 |
| 20260502224204 | 68 | 82 | 1.0 | 2.0 | 0.00 | 0.17 | 0.00 | 58 | 1016.9 |
| 20260502223951 | 69 | 53 | 3.0 | 4.0 | 0.00 | 0.17 | 0.00 | 56 | 1016.9 |
| 20260502223746 | 69 | 96 | 1.0 | 2.0 | 0.00 | 0.17 | 0.00 | 56 | 1017.3 |
| 20260502223539 | 69 | 196 | 1.0 | 2.0 | 0.00 | 0.17 | 0.00 | 55 | 1016.9 |
| 20260502223516 | 69 | 211 | 1.0 | 2.0 | 0.00 | 0.17 | 0.00 | 55 | 1017.3 |
| 20260502223057 | 70 | 254 | 2.0 | 3.0 | 0.00 | 0.17 | 0.00 | 54 | 1016.9 |
| 20260502222853 | 70 | 209 | 2.0 | 2.0 | 0.00 | 0.17 | 0.00 | 56 | 1016.9 |
| 20260502222830 | 69 | 84 | 1.0 | 2.0 | 0.00 | 0.17 | 0.00 | 56 | 1017.3 |
| 20260502222410 | 69 | 179 | 3.0 | 4.0 | 0.00 | 0.17 | 0.00 | 57 | 1017.3 |
| 20260502222348 | 70 | 137 | 2.0 | 4.0 | 0.00 | 0.17 | 0.00 | 55 | 1017.3 |
| 20260502222108 | 70 | 98 | 1.0 | 2.0 | 0.00 | 0.17 | 0.00 | 56 | 1017.3 |
| 20260502221647 | 70 | 156 | 0.0 | 2.0 | 0.00 | 0.17 | 0.00 | 54 | 1017.3 |
| 20260502221626 | 69 | 250 | 0.0 | 0.0 | 0.00 | 0.17 | 0.00 | 55 | 1017.3 |
| 20260502221205 | 70 | 33 | 1.0 | 2.0 | 0.00 | 0.17 | 0.00 | 54 | 1017.6 |
| 20260502220958 | 69 | 160 | 0.0 | 0.0 | 0.00 | 0.17 | 0.00 | 56 | 1017.3 |
| 20260502220752 | 69 | 58 | 1.0 | 2.0 | 0.00 | 0.17 | 0.00 | 58 | 1017.6 |
| 20260502220547 | 68 | 254 | 0.0 | 1.0 | 0.00 | 0.17 | 0.00 | 57 | 1017.3 |
| 20260502220339 | 68 | 72 | 2.0 | 3.0 | 0.00 | 0.17 | 0.00 | 58 | 1017.6 |
| 20260502220123 | 67 | 131 | 2.0 | 2.0 | 0.00 | 0.17 | 0.00 | 59 | 1017.6 |
| 20260502215916 | 67 | 121 | 2.0 | 3.0 | 0.00 | 0.17 | 0.00 | 58 | 1017.6 |
| 20260502215709 | 67 | 187 | 3.0 | 3.0 | 0.00 | 0.17 | 0.00 | 57 | 1017.6 |
| 20260502215503 | 67 | 68 | 1.0 | 2.0 | 0.00 | 0.17 | 0.00 | 59 | 1017.6 |
| 20260502215256 | 67 | 105 | 2.0 | 3.0 | 0.00 | 0.17 | 0.00 | 57 | 1017.6 |
| 20260502215051 | 68 | 74 | 9.0 | 10.0 | 0.00 | 0.17 | 0.00 | 56 | 1017.9 |
| 20260502215029 | 67 | 157 | 2.0 | 2.0 | 0.00 | 0.17 | 0.00 | 57 | 1017.9 |
| 20260502214609 | 67 | 159 | 1.0 | 2.0 | 0.00 | 0.17 | 0.00 | 58 | 1017.9 |
| 20260502214358 | 67 | 88 | 1.0 | 2.0 | 0.00 | 0.17 | 0.00 | 59 | 1017.9 |
| 20260502214335 | 67 | 87 | 4.0 | 5.0 | 0.00 | 0.17 | 0.00 | 58 | 1017.6 |
| 20260502213915 | 66 | 138 | 0.0 | 0.0 | 0.00 | 0.17 | 0.00 | 59 | 1017.9 |
| 20260502213708 | 66 | 219 | 2.0 | 3.0 | 0.00 | 0.17 | 0.00 | 59 | 1017.9 |
| 20260502213645 | 66 | 350 | 4.0 | 5.0 | 0.00 | 0.17 | 0.00 | 61 | 1017.6 |
| 20260502213225 | 66 | 51 | 2.0 | 3.0 | 0.00 | 0.17 | 0.00 | 60 | 1017.9 |
| 20260502213203 | 66 | 112 | 1.0 | 2.0 | 0.00 | 0.17 | 0.00 | 60 | 1017.9 |
| 20260502212744 | 65 | 113 | 2.0 | 2.0 | 0.00 | 0.17 | 0.00 | 60 | 1018.3 |
| 20260502212535 | 65 | 220 | 1.0 | 2.0 | 0.00 | 0.17 | 0.00 | 60 | 1017.9 |
| 20260502212513 | 65 | 100 | 0.0 | 1.0 | 0.00 | 0.17 | 0.00 | 62 | 1017.9 |
| 20260502212056 | 64 | 93 | 1.0 | 2.0 | 0.00 | 0.17 | 0.00 | 62 | 1017.9 |
| 20260502211848 | 65 | 27 | 2.0 | 3.0 | 0.00 | 0.17 | 0.00 | 61 | 1017.9 |
| 20260502211643 | 65 | 46 | 3.0 | 5.0 | 0.00 | 0.17 | 0.00 | 60 | 1017.9 |
| 20260502211621 | 66 | 58 | 2.0 | 5.0 | 0.00 | 0.17 | 0.00 | 59 | 1017.9 |
| 20260502211202 | 66 | 210 | 0.0 | 2.0 | 0.00 | 0.17 | 0.00 | 60 | 1017.9 |
| 20260502210958 | 66 | 123 | 0.0 | 0.0 | 0.00 | 0.17 | 0.00 | 60 | 1018.3 |
| 20260502210935 | 66 | 96 | 1.0 | 2.0 | 0.00 | 0.17 | 0.00 | 59 | 1018.3 |
| 20260502210517 | 65 | 83 | 1.0 | 2.0 | 0.00 | 0.17 | 0.00 | 60 | 1018.3 |
| 20260502210312 | 65 | 62 | 3.0 | 5.0 | 0.00 | 0.17 | 0.00 | 60 | 1018.3 |
| 20260502210105 | 65 | 213 | 3.0 | 4.0 | 0.00 | 0.17 | 0.00 | 60 | 1018.3 |
| 20260502205856 | 65 | 72 | 1.0 | 2.0 | 0.00 | 0.17 | 0.00 | 60 | 1018.3 |
| 20260502205651 | 64 | 110 | 1.0 | 2.0 | 0.00 | 0.17 | 0.00 | 60 | 1017.9 |
| 20260502205447 | 64 | 227 | 3.0 | 4.0 | 0.00 | 0.17 | 0.00 | 61 | 1018.3 |
| 20260502205238 | 64 | 247 | 5.0 | 7.0 | 0.00 | 0.17 | 0.00 | 61 | 1018.3 |
| 20260502205032 | 63 | 226 | 1.0 | 2.0 | 0.00 | 0.17 | 0.00 | 62 | 1018.3 |
| 20260502204819 | 63 | 178 | 1.0 | 2.0 | 0.00 | 0.17 | 0.00 | 61 | 1018.3 |
| 20260502204610 | 63 | 197 | 4.0 | 5.0 | 0.00 | 0.17 | 0.00 | 61 | 1018.3 |
| 20260502204402 | 63 | 222 | 3.0 | 5.0 | 0.00 | 0.17 | 0.00 | 61 | 1018.6 |
| 20260502204152 | 64 | 214 | 3.0 | 3.0 | 0.00 | 0.17 | 0.00 | 62 | 1018.3 |
| 20260502203945 | 64 | 23 | 2.0 | 3.0 | 0.00 | 0.17 | 0.00 | 62 | 1018.6 |
| 20260502203736 | 64 | 31 | 3.0 | 3.0 | 0.00 | 0.17 | 0.00 | 60 | 1018.6 |
| 20260502203530 | 64 | 235 | 5.0 | 5.0 | 0.00 | 0.17 | 0.00 | 60 | 1018.6 |
| 20260502203507 | 64 | 129 | 0.0 | 0.0 | 0.00 | 0.17 | 0.00 | 61 | 1018.6 |
| 20260502203046 | 64 | 352 | 2.0 | 3.0 | 0.00 | 0.17 | 0.00 | 60 | 1018.6 |
| 20260502202841 | 64 | 202 | 3.0 | 5.0 | 0.00 | 0.17 | 0.00 | 61 | 1018.6 |
| 20260502202633 | 64 | 54 | 2.0 | 4.0 | 0.00 | 0.17 | 0.00 | 60 | 1018.6 |
| 20260502202426 | 64 | 301 | 2.0 | 3.0 | 0.00 | 0.17 | 0.00 | 60 | 1019.0 |
| 20260502202217 | 64 | 123 | 2.0 | 3.0 | 0.00 | 0.17 | 0.00 | 61 | 1019.0 |
| 20260502202007 | 64 | 304 | 2.0 | 4.0 | 0.00 | 0.17 | 0.00 | 62 | 1019.0 |
| 20260502201800 | 64 | 124 | 3.0 | 3.0 | 0.00 | 0.17 | 0.00 | 61 | 1019.0 |
| 20260502201551 | 64 | 250 | 8.0 | 9.0 | 0.00 | 0.17 | 0.00 | 61 | 1019.0 |
| 20260502201341 | 63 | 20 | 1.0 | 2.0 | 0.00 | 0.17 | 0.00 | 64 | 1019.0 |
| 20260502201131 | 62 | 9 | 4.0 | 5.0 | 0.00 | 0.17 | 0.00 | 64 | 1019.0 |
| 20260502201109 | 62 | 60 | 1.0 | 2.0 | 0.00 | 0.17 | 0.00 | 64 | 1019.0 |
| 20260502200640 | 62 | 127 | 1.0 | 2.0 | 0.00 | 0.17 | 0.00 | 64 | 1019.3 |
| 20260502200430 | 62 | 58 | 2.0 | 3.0 | 0.00 | 0.17 | 0.00 | 63 | 1019.0 |
| 20260502200215 | 62 | 177 | 0.0 | 1.0 | 0.00 | 0.17 | 0.00 | 66 | 1019.3 |
| 20260502200001 | 61 | 90 | 0.0 | 2.0 | 0.00 | 0.17 | 0.00 | 66 | 1019.3 |
| 20260502195753 | 61 | 126 | 1.0 | 2.0 | 0.00 | 0.17 | 0.00 | 66 | 1019.3 |
| 20260502195546 | 61 | 5 | 4.0 | 6.0 | 0.00 | 0.17 | 0.00 | 65 | 1019.3 |
| 20260502195332 | 61 | 77 | 4.0 | 5.0 | 0.00 | 0.17 | 0.00 | 65 | 1019.3 |
| 20260502195308 | 62 | 20 | 3.0 | 5.0 | 0.00 | 0.17 | 0.00 | 64 | 1019.6 |
| 20260502195032 | 61 | 244 | 2.0 | 3.0 | 0.00 | 0.17 | 0.00 | 64 | 1019.3 |
| 20260502194611 | 61 | 223 | 2.0 | 3.0 | 0.00 | 0.17 | 0.00 | 65 | 1019.3 |
| 20260502194402 | 62 | 120 | 2.0 | 3.0 | 0.00 | 0.17 | 0.00 | 63 | 1019.6 |
| 20260502194157 | 62 | 245 | 2.0 | 3.0 | 0.00 | 0.17 | 0.00 | 64 | 1019.3 |
| 20260502193947 | 61 | 228 | 1.0 | 2.0 | 0.00 | 0.17 | 0.00 | 65 | 1019.3 |
| 20260502193739 | 61 | 110 | 2.0 | 3.0 | 0.00 | 0.17 | 0.00 | 64 | 1019.6 |
| 20260502193525 | 61 | 316 | 3.0 | 6.0 | 0.00 | 0.17 | 0.00 | 65 | 1019.3 |
| 20260502193319 | 61 | 256 | 4.0 | 6.0 | 0.00 | 0.17 | 0.00 | 64 | 1019.6 |
| 20260502193106 | 61 | 62 | 3.0 | 4.0 | 0.00 | 0.17 | 0.00 | 66 | 1019.3 |
| 20260502192852 | 60 | 220 | 2.0 | 2.0 | 0.00 | 0.17 | 0.00 | 66 | 1019.6 |
| 20260502192829 | 60 | 251 | 4.0 | 5.0 | 0.00 | 0.17 | 0.00 | 65 | 1020.0 |
| 20260502192404 | 61 | 240 | 3.0 | 3.0 | 0.00 | 0.17 | 0.00 | 62 | 1020.0 |
| 20260502192157 | 62 | 107 | 1.0 | 2.0 | 0.00 | 0.17 | 0.00 | 65 | 1019.6 |
| 20260502191946 | 61 | 244 | 3.0 | 4.0 | 0.00 | 0.17 | 0.00 | 63 | 1019.6 |
| 20260502191737 | 61 | 61 | 2.0 | 2.0 | 0.00 | 0.17 | 0.00 | 66 | 1019.6 |
| 20260502191526 | 60 | 97 | 3.0 | 5.0 | 0.00 | 0.17 | 0.00 | 66 | 1020.0 |
| 20260502191318 | 60 | 69 | 1.0 | 2.0 | 0.00 | 0.17 | 0.00 | 68 | 1020.0 |
| 20260502191100 | 59 | 324 | 2.0 | 3.0 | 0.00 | 0.17 | 0.00 | 67 | 1020.0 |
| 20260502191036 | 59 | 289 | 1.0 | 2.0 | 0.00 | 0.17 | 0.00 | 71 | 1020.0 |